createdAt,value
2023-10-29T00:03:26.867Z,99789.97
2023-10-29T00:07:29.589Z,99789.28
2023-10-29T00:11:31.696Z,99796.97
2023-10-29T00:15:34.416Z,99802.00
2023-10-29T00:19:36.612Z,99806.25
2023-10-29T00:23:38.570Z,99801.53
2023-10-29T00:27:40.628Z,99795.41
2023-10-29T00:31:43.004Z,99796.03
2023-10-29T00:35:45.134Z,99789.28
2023-10-29T00:39:47.281Z,99791.72
2023-10-29T00:43:49.313Z,99797.06
2023-10-29T00:47:51.630Z,99784.84
2023-10-29T00:51:54.015Z,99785.97
2023-10-29T00:55:56.274Z,99778.50
2023-10-29T00:59:58.561Z,99797.28
2023-10-29T01:04:00.773Z,99798.53
2023-10-29T01:08:06.449Z,99804.41
2023-10-29T01:12:16.923Z,99808.41
2023-10-29T01:16:18.972Z,99801.28
2023-10-29T01:20:21.029Z,99812.72
2023-10-29T01:24:23.758Z,99807.94
2023-10-29T01:28:25.955Z,99811.25
2023-10-29T01:32:28.118Z,99818.38
2023-10-29T01:36:30.152Z,99812.59
2023-10-29T01:40:32.197Z,99813.44
2023-10-29T01:44:34.293Z,99806.56
2023-10-29T01:48:36.514Z,99810.03
2023-10-29T01:52:41.852Z,99805.06
2023-10-29T01:56:43.661Z,99810.09
2023-10-29T02:00:45.797Z,99807.41
2023-10-29T02:04:48.009Z,99817.00
2023-10-29T02:08:50.179Z,99819.00
2023-10-29T02:12:53.008Z,99828.28
2023-10-29T02:16:54.943Z,99834.81
2023-10-29T02:20:57.340Z,99837.03
2023-10-29T02:24:59.629Z,99840.47
2023-10-29T02:29:01.736Z,99838.50
2023-10-29T02:33:04.038Z,99831.22
2023-10-29T02:37:06.279Z,99837.28
2023-10-29T02:41:08.558Z,99849.72
2023-10-29T02:45:11.754Z,99849.19
2023-10-29T02:49:13.869Z,99854.13
2023-10-29T02:53:16.170Z,99845.00
2023-10-29T02:57:18.451Z,99846.03
2023-10-29T03:01:20.822Z,99859.59
2023-10-29T03:05:22.968Z,99856.84
2023-10-29T03:09:25.224Z,99857.50
2023-10-29T03:13:27.267Z,99854.31
2023-10-29T03:17:29.029Z,99859.72
2023-10-29T03:21:31.116Z,99860.59
2023-10-29T03:25:33.426Z,99852.56
2023-10-29T03:29:35.461Z,99848.97
2023-10-29T03:33:37.586Z,99853.59
2023-10-29T03:37:40.253Z,99845.22
2023-10-29T03:41:43.084Z,99844.81
2023-10-29T03:45:45.152Z,99839.56
2023-10-29T03:49:47.183Z,99842.53
2023-10-29T03:53:49.304Z,99844.09
2023-10-29T03:57:51.523Z,99838.53
2023-10-29T04:01:53.928Z,99845.81
2023-10-29T04:05:56.941Z,99848.41
2023-10-29T04:10:00.180Z,99851.56
2023-10-29T04:14:03.911Z,99852.84
2023-10-29T04:18:06.340Z,99844.06
2023-10-29T04:22:09.212Z,99841.81
2023-10-29T04:26:11.270Z,99829.53
2023-10-29T04:30:13.544Z,99818.00
2023-10-29T04:34:15.564Z,99821.22
2023-10-29T04:38:17.586Z,99826.81
2023-10-29T04:42:19.917Z,99821.94
2023-10-29T04:46:21.924Z,99823.38
2023-10-29T04:50:24.059Z,99836.41
2023-10-29T04:54:26.286Z,99841.47
2023-10-29T04:58:28.393Z,99845.97
2023-10-29T05:02:30.573Z,99844.34
2023-10-29T05:06:33.635Z,99852.13
2023-10-29T05:10:35.749Z,99854.03
2023-10-29T05:14:37.940Z,99856.50
2023-10-29T05:18:40.082Z,99854.91
2023-10-29T05:22:42.305Z,99851.94
2023-10-29T05:26:44.364Z,99849.34
2023-10-29T05:30:46.587Z,99850.59
2023-10-29T05:34:48.741Z,99857.09
2023-10-29T05:38:50.908Z,99866.94
2023-10-29T05:42:53.445Z,99869.28
2023-10-29T05:46:55.534Z,99878.16
2023-10-29T05:50:58.156Z,99894.03
2023-10-29T05:55:04.764Z,99894.31
2023-10-29T05:59:06.985Z,99902.22
2023-10-29T06:03:09.164Z,99896.53
2023-10-29T06:07:11.369Z,99901.69
2023-10-29T06:11:13.106Z,99905.06
2023-10-29T06:15:16.097Z,99921.28
2023-10-29T06:19:18.318Z,99925.34
2023-10-29T06:23:21.185Z,99918.09
2023-10-29T06:27:23.365Z,99922.34
2023-10-29T06:31:30.462Z,99935.22
2023-10-29T06:35:32.523Z,99929.16
2023-10-29T06:39:34.653Z,99925.53
2023-10-29T06:43:36.311Z,99935.34
2023-10-29T06:47:38.494Z,99934.66
2023-10-29T06:51:40.288Z,99937.78
2023-10-29T06:55:43.383Z,99926.75
2023-10-29T06:59:45.610Z,99934.41
2023-10-29T07:03:47.836Z,99928.56
2023-10-29T07:07:50.044Z,99913.69
2023-10-29T07:11:52.821Z,99914.06
2023-10-29T07:15:55.791Z,99912.94
2023-10-29T07:19:58.225Z,99909.44
2023-10-29T07:24:00.642Z,99909.59
2023-10-29T07:28:03.056Z,99903.53
2023-10-29T07:32:05.570Z,99909.91
2023-10-29T07:36:08.244Z,99915.13
2023-10-29T07:40:10.546Z,99900.06
2023-10-29T07:44:12.586Z,99898.97
2023-10-29T07:48:18.530Z,99904.44
2023-10-29T07:52:20.664Z,99896.44
2023-10-29T07:56:22.785Z,99895.75
2023-10-29T08:00:24.792Z,99883.13
2023-10-29T08:04:29.304Z,99880.16
2023-10-29T08:08:31.172Z,99890.00
2023-10-29T08:12:33.365Z,99886.97
2023-10-29T08:16:35.492Z,99876.41
2023-10-29T08:20:37.630Z,99883.19
2023-10-29T08:24:41.122Z,99879.50
2023-10-29T08:28:43.260Z,99877.66
2023-10-29T08:32:45.434Z,99888.13
2023-10-29T08:36:47.577Z,99896.22
2023-10-29T08:40:49.748Z,99893.47
2023-10-29T08:44:56.990Z,99887.28
2023-10-29T08:48:59.422Z,99891.59
2023-10-29T08:53:01.557Z,99887.16
2023-10-29T08:57:03.760Z,99894.53
2023-10-29T09:01:13.808Z,99893.91
2023-10-29T09:05:16.422Z,99895.94
2023-10-29T09:09:19.105Z,99899.75
2023-10-29T09:13:23.901Z,99902.81
2023-10-29T09:17:26.145Z,99893.94
2023-10-29T09:21:28.413Z,99896.06
2023-10-29T09:25:30.500Z,99890.66
2023-10-29T09:29:34.569Z,99886.59
2023-10-29T09:33:36.663Z,99888.16
2023-10-29T09:37:38.656Z,99887.34
2023-10-29T09:41:44.471Z,99888.88
2023-10-29T09:45:48.723Z,99883.22
2023-10-29T09:49:52.466Z,99883.66
2023-10-29T09:53:57.362Z,99878.44
2023-10-29T09:58:00.790Z,99875.53
2023-10-29T10:02:03.345Z,99868.78
2023-10-29T10:06:07.254Z,99860.72
2023-10-29T10:10:09.661Z,99857.44
2023-10-29T10:14:27.317Z,99868.78
2023-10-29T10:18:29.489Z,99865.00
2023-10-29T10:22:38.859Z,99859.66
2023-10-29T10:26:42.008Z,99852.63
2023-10-29T10:30:44.219Z,99846.69
2023-10-29T10:34:52.244Z,99855.94
2023-10-29T10:38:54.489Z,99840.16
2023-10-29T10:42:57.385Z,99839.81
2023-10-29T10:47:01.346Z,99830.78
2023-10-29T10:51:04.088Z,99826.84
2023-10-29T10:55:10.699Z,99819.88
2023-10-29T10:59:21.472Z,99808.03
2023-10-29T11:03:32.238Z,99817.84
2023-10-29T11:07:36.222Z,99818.03
2023-10-29T11:11:44.505Z,99811.00
2023-10-29T11:15:51.056Z,99813.19
2023-10-29T11:19:53.400Z,99804.56
2023-10-29T11:24:19.867Z,99800.84
2023-10-29T11:28:25.452Z,99795.56
2023-10-29T11:32:27.718Z,99786.81
2023-10-29T11:36:36.579Z,99778.19
2023-10-29T11:40:38.871Z,99769.31
2023-10-29T11:44:41.131Z,99758.84
2023-10-29T11:49:04.139Z,99757.41
2023-10-29T11:53:08.271Z,99767.47
2023-10-29T11:57:10.579Z,99760.19
2023-10-29T12:01:18.955Z,99764.00
2023-10-29T12:05:20.937Z,99745.97
2023-10-29T12:09:24.971Z,99748.38
2023-10-29T12:13:40.054Z,99730.09
2023-10-29T12:17:46.452Z,99728.69
2023-10-29T12:21:52.437Z,99716.63
2023-10-29T12:25:54.778Z,99713.47
2023-10-29T12:29:57.518Z,99714.44
2023-10-29T12:34:01.065Z,99705.94
2023-10-29T12:38:02.789Z,99700.25
2023-10-29T12:42:05.048Z,99697.00
2023-10-29T12:46:15.498Z,99702.66
2023-10-29T12:50:17.537Z,99707.16
2023-10-29T12:54:24.905Z,99705.50
2023-10-29T12:58:29.404Z,99703.94
2023-10-29T13:02:31.667Z,99712.09
2023-10-29T13:06:33.977Z,99711.09
2023-10-29T13:10:37.031Z,99703.78
2023-10-29T13:14:40.572Z,99713.44
2023-10-29T13:18:42.737Z,99701.50
2023-10-29T13:22:45.993Z,99710.41
2023-10-29T13:26:49.469Z,99723.03
2023-10-29T13:30:56.205Z,99717.25
2023-10-29T13:34:58.452Z,99711.63
2023-10-29T13:39:00.659Z,99705.28
2023-10-29T13:43:02.698Z,99703.31
2023-10-29T13:47:05.124Z,99704.59
2023-10-29T13:51:07.633Z,99694.88
2023-10-29T13:55:10.036Z,99691.75
2023-10-29T13:59:13.061Z,99692.16
2023-10-29T14:03:15.080Z,99685.91
2023-10-29T14:07:17.387Z,99673.28
2023-10-29T14:11:20.842Z,99678.13
2023-10-29T14:15:22.855Z,99672.16
2023-10-29T14:19:25.473Z,99671.47
2023-10-29T14:23:28.014Z,99671.66
2023-10-29T14:27:31.275Z,99659.88
2023-10-29T14:31:35.021Z,99652.53
2023-10-29T14:35:37.281Z,99654.66
2023-10-29T14:39:39.365Z,99644.69
2023-10-29T14:43:42.319Z,99641.03
2023-10-29T14:47:47.218Z,99641.44
2023-10-29T14:51:49.291Z,99633.19
2023-10-29T14:55:51.436Z,99641.84
2023-10-29T14:59:53.576Z,99636.66
2023-10-29T15:03:56.212Z,99641.47
2023-10-29T15:07:58.338Z,99645.66
2023-10-29T15:12:04.548Z,99634.81
2023-10-29T15:16:07.301Z,99635.34
2023-10-29T15:20:10.541Z,99646.09
2023-10-29T15:24:12.604Z,99637.00
2023-10-29T15:28:14.792Z,99637.91
2023-10-29T15:32:17.060Z,99654.75
2023-10-29T15:36:19.188Z,99655.56
2023-10-29T15:40:21.437Z,99641.50
2023-10-29T15:44:23.586Z,99650.00
2023-10-29T15:48:25.825Z,99633.63
2023-10-29T15:52:27.570Z,99633.59
2023-10-29T15:56:32.120Z,99641.91
2023-10-29T16:00:37.498Z,99645.47
2023-10-29T16:04:39.812Z,99637.34
2023-10-29T16:08:42.115Z,99654.16
2023-10-29T16:12:43.926Z,99654.75
2023-10-29T16:16:45.956Z,99661.06
2023-10-29T16:20:48.930Z,99646.72
2023-10-29T16:24:50.716Z,99652.72
2023-10-29T16:28:53.096Z,99663.91
2023-10-29T16:32:56.568Z,99668.88
2023-10-29T16:36:58.704Z,99668.72
2023-10-29T16:41:05.188Z,99668.06
2023-10-29T16:45:08.121Z,99664.66
2023-10-29T16:49:10.536Z,99659.56
2023-10-29T16:53:12.735Z,99658.63
2023-10-29T16:57:14.965Z,99658.84
2023-10-29T17:01:17.144Z,99652.34
2023-10-29T17:05:19.523Z,99652.06
2023-10-29T17:09:22.933Z,99650.88
2023-10-29T17:13:25.922Z,99653.72
2023-10-29T17:17:29.608Z,99670.44
2023-10-29T17:21:32.045Z,99672.53
2023-10-29T17:25:36.343Z,99662.94
2023-10-29T17:29:38.388Z,99673.34
2023-10-29T17:33:41.086Z,99663.34
2023-10-29T17:37:44.420Z,99657.34
2023-10-29T17:41:46.996Z,99653.22
2023-10-29T17:45:49.076Z,99642.56
2023-10-29T17:49:51.117Z,99647.31
2023-10-29T17:53:54.682Z,99656.06
2023-10-29T17:57:57.949Z,99650.84
2023-10-29T18:01:59.958Z,99656.91
2023-10-29T18:06:15.539Z,99653.88
2023-10-29T18:10:18.699Z,99655.66
2023-10-29T18:14:21.505Z,99644.03
2023-10-29T18:18:23.553Z,99648.19
2023-10-29T18:22:25.651Z,99639.63
2023-10-29T18:26:27.743Z,99634.38
2023-10-29T18:30:29.900Z,99631.44
2023-10-29T18:34:32.321Z,99637.97
2023-10-29T18:38:34.522Z,99627.00
2023-10-29T18:42:36.593Z,99619.63
2023-10-29T18:46:38.732Z,99617.50
2023-10-29T18:50:40.758Z,99610.44
2023-10-29T18:54:42.808Z,99604.03
2023-10-29T18:58:45.563Z,99621.22
2023-10-29T19:02:47.689Z,99618.94
2023-10-29T19:06:49.715Z,99611.63
2023-10-29T19:10:51.867Z,99616.72
2023-10-29T19:14:54.002Z,99616.13
2023-10-29T19:18:58.871Z,99623.66
2023-10-29T19:23:02.369Z,99630.13
2023-10-29T19:27:04.432Z,99660.16
2023-10-29T19:35:15.145Z,99663.84
2023-10-29T19:39:17.138Z,99661.56
2023-10-29T19:43:19.424Z,99679.06
2023-10-29T19:47:21.493Z,99689.00
2023-10-29T19:51:24.347Z,99683.44
2023-10-29T19:55:26.500Z,99684.94
2023-10-29T19:59:28.615Z,99673.25
2023-10-29T20:03:31.049Z,99678.25
2023-10-29T20:07:33.620Z,99671.16
2023-10-29T20:11:35.677Z,99686.03
2023-10-29T20:15:37.821Z,99683.13
2023-10-29T20:19:43.036Z,99672.31
2023-10-29T20:23:45.094Z,99669.06
2023-10-29T20:27:47.083Z,99670.72
2023-10-29T20:31:49.173Z,99668.16
2023-10-29T20:35:51.279Z,99664.53
2023-10-29T20:39:53.370Z,99664.28
2023-10-29T20:43:55.342Z,99656.56
2023-10-29T20:47:57.673Z,99654.41
2023-10-29T20:51:59.458Z,99637.06
2023-10-29T20:56:05.849Z,99639.94
2023-10-29T21:00:09.360Z,99636.69
2023-10-29T21:04:11.774Z,99647.09
2023-10-29T21:08:13.709Z,99633.56
2023-10-29T21:12:15.899Z,99639.19
2023-10-29T21:16:21.534Z,99628.69
2023-10-29T21:20:27.587Z,99632.22
2023-10-29T21:24:29.818Z,99629.16
2023-10-29T21:28:32.438Z,99636.97
2023-10-29T21:32:34.299Z,99643.56
2023-10-29T21:36:37.671Z,99642.88
2023-10-29T21:40:39.303Z,99652.28
2023-10-29T21:44:45.784Z,99649.63
2023-10-29T21:48:47.816Z,99653.78
2023-10-29T21:52:49.932Z,99652.72
2023-10-29T21:56:51.914Z,99660.06
2023-10-29T22:00:54.111Z,99666.41
2023-10-29T22:04:55.910Z,99672.91
2023-10-29T22:08:58.952Z,99661.78
2023-10-29T22:13:01.588Z,99667.25
2023-10-29T22:17:03.802Z,99654.41
2023-10-29T22:21:11.616Z,99663.56
2023-10-29T22:25:13.917Z,99667.16
2023-10-29T22:29:16.064Z,99668.78
2023-10-29T22:33:18.229Z,99660.22
2023-10-29T22:37:20.370Z,99664.34
2023-10-29T22:41:22.417Z,99667.00
2023-10-29T22:45:24.762Z,99654.53
2023-10-29T22:49:26.939Z,99666.34
2023-10-29T22:53:28.958Z,99670.63
2023-10-29T22:57:31.119Z,99673.47
2023-10-29T23:01:33.220Z,99674.00
2023-10-29T23:05:35.462Z,99679.31
2023-10-29T23:09:37.178Z,99660.84
2023-10-29T23:13:39.289Z,99660.84
2023-10-29T23:17:41.772Z,99656.44
2023-10-29T23:21:43.633Z,99662.03
2023-10-29T23:25:46.162Z,99651.25
2023-10-29T23:29:48.701Z,99654.59
2023-10-29T23:33:50.981Z,99652.97
2023-10-29T23:37:54.483Z,99661.34
2023-10-29T23:41:56.948Z,99661.09
2023-10-29T23:45:59.030Z,99660.97
2023-10-29T23:50:01.059Z,99657.75
2023-10-29T23:54:03.497Z,99661.75
2023-10-29T23:58:05.570Z,99653.44
